Outwell, United Kingdom
Current Conditions -  °F | °C
As of 2:50 AM on Sunday 25 Jan 2015 (Local Time) from EGYM Reporting Station
Broken Clouds Broken Clouds  
Wind Chill: 32°   Ceiling: 20000
Heat Index: 32°   Visibility: 6mi
Dew Point: 30°   Wind: 3mph
Humidity: 93%   Direction: 220°SW
Pressure: 30.39"   Gusts: NA
Location:  52.61°N, 0.23°E
Report Text: EGYM 250250Z AUTO 22003KT 9999 BKN200/// 00/M01 Q1029
Loading
Personal Weather Stations






























Interactive Weather Map New forecast layout! Learn more

10-Day Weather Forecast

Advertisements
Track Severe Weather on mobile